sensor_id;sensor_type;location;lat;lon;timestamp;temperature;humidity
67186;HTU21D;54116;53.518;49.398;2023-02-21T00:01:57;-9.32;106.01
67186;HTU21D;54116;53.518;49.398;2023-02-21T00:04:43;-9.30;106.02
67186;HTU21D;54116;53.518;49.398;2023-02-21T00:07:28;-9.27;105.94
67186;HTU21D;54116;53.518;49.398;2023-02-21T00:10:14;-9.26;105.84
67186;HTU21D;54116;53.518;49.398;2023-02-21T00:13:00;-9.25;105.62
67186;HTU21D;54116;53.518;49.398;2023-02-21T00:15:44;-9.25;105.60
67186;HTU21D;54116;53.518;49.398;2023-02-21T00:18:36;-9.25;105.57
67186;HTU21D;54116;53.518;49.398;2023-02-21T00:21:22;-9.30;105.37
67186;HTU21D;54116;53.518;49.398;2023-02-21T00:24:07;-9.32;105.72
67186;HTU21D;54116;53.518;49.398;2023-02-21T00:26:55;-9.34;105.79
67186;HTU21D;54116;53.518;49.398;2023-02-21T00:29:40;-9.32;106.19
67186;HTU21D;54116;53.518;49.398;2023-02-21T00:32:24;-9.29;106.53
67186;HTU21D;54116;53.518;49.398;2023-02-21T00:35:09;-9.27;106.72
67186;HTU21D;54116;53.518;49.398;2023-02-21T00:37:54;-9.22;107.01
67186;HTU21D;54116;53.518;49.398;2023-02-21T00:40:39;-9.18;107.09
67186;HTU21D;54116;53.518;49.398;2023-02-21T00:43:31;-9.13;107.24
67186;HTU21D;54116;53.518;49.398;2023-02-21T00:46:16;-9.10;107.18
67186;HTU21D;54116;53.518;49.398;2023-02-21T00:49:01;-9.08;107.31
67186;HTU21D;54116;53.518;49.398;2023-02-21T00:51:45;-9.04;107.23
67186;HTU21D;54116;53.518;49.398;2023-02-21T00:54:31;-9.01;107.53
67186;HTU21D;54116;53.518;49.398;2023-02-21T00:57:16;-8.99;107.49
67186;HTU21D;54116;53.518;49.398;2023-02-21T01:00:02;-8.98;107.46
67186;HTU21D;54116;53.518;49.398;2023-02-21T01:02:47;-8.98;107.49
67186;HTU21D;54116;53.518;49.398;2023-02-21T01:05:31;-8.96;107.55
67186;HTU21D;54116;53.518;49.398;2023-02-21T01:08:16;-8.95;107.66
67186;HTU21D;54116;53.518;49.398;2023-02-21T01:11:00;-8.97;107.58
67186;HTU21D;54116;53.518;49.398;2023-02-21T01:13:45;-8.96;107.50
67186;HTU21D;54116;53.518;49.398;2023-02-21T01:16:31;-8.94;107.70
67186;HTU21D;54116;53.518;49.398;2023-02-21T01:19:16;-8.93;107.63
67186;HTU21D;54116;53.518;49.398;2023-02-21T01:22:03;-8.93;107.63
67186;HTU21D;54116;53.518;49.398;2023-02-21T01:24:50;-8.92;107.78
67186;HTU21D;54116;53.518;49.398;2023-02-21T01:27:35;-8.92;107.91
67186;HTU21D;54116;53.518;49.398;2023-02-21T01:30:20;-8.88;107.97
67186;HTU21D;54116;53.518;49.398;2023-02-21T01:33:04;-8.85;108.23
67186;HTU21D;54116;53.518;49.398;2023-02-21T01:35:49;-8.83;108.35
67186;HTU21D;54116;53.518;49.398;2023-02-21T01:38:34;-8.82;108.39
67186;HTU21D;54116;53.518;49.398;2023-02-21T01:41:20;-8.81;108.38
67186;HTU21D;54116;53.518;49.398;2023-02-21T01:44:26;-8.79;108.60
67186;HTU21D;54116;53.518;49.398;2023-02-21T01:47:12;-8.77;108.72
67186;HTU21D;54116;53.518;49.398;2023-02-21T01:49:58;-8.74;108.77
67186;HTU21D;54116;53.518;49.398;2023-02-21T01:52:45;-8.72;108.81
67186;HTU21D;54116;53.518;49.398;2023-02-21T01:55:32;-8.68;109.09
67186;HTU21D;54116;53.518;49.398;2023-02-21T01:58:20;-8.63;109.29
67186;HTU21D;54116;53.518;49.398;2023-02-21T02:01:10;-8.60;109.17
67186;HTU21D;54116;53.518;49.398;2023-02-21T02:03:56;-8.57;109.03
67186;HTU21D;54116;53.518;49.398;2023-02-21T02:06:42;-8.55;109.14
67186;HTU21D;54116;53.518;49.398;2023-02-21T02:09:27;-8.52;109.24
67186;HTU21D;54116;53.518;49.398;2023-02-21T02:12:45;-8.50;109.30
67186;HTU21D;54116;53.518;49.398;2023-02-21T02:15:16;-8.48;109.27
67186;HTU21D;54116;53.518;49.398;2023-02-21T02:18:03;-8.48;109.09
67186;HTU21D;54116;53.518;49.398;2023-02-21T02:29:12;-8.41;108.66
67186;HTU21D;54116;53.518;49.398;2023-02-21T02:34:52;-8.39;108.88
67186;HTU21D;54116;53.518;49.398;2023-02-21T02:40:21;-8.31;109.48
67186;HTU21D;54116;53.518;49.398;2023-02-21T02:43:08;-8.25;109.72
67186;HTU21D;54116;53.518;49.398;2023-02-21T02:45:59;-8.16;109.94
67186;HTU21D;54116;53.518;49.398;2023-02-21T02:50:57;-8.08;109.82
67186;HTU21D;54116;53.518;49.398;2023-02-21T02:53:28;-8.05;109.68
67186;HTU21D;54116;53.518;49.398;2023-02-21T02:56:10;-8.01;109.83
67186;HTU21D;54116;53.518;49.398;2023-02-21T02:58:41;-7.95;109.90
67186;HTU21D;54116;53.518;49.398;2023-02-21T03:07:01;-7.86;109.66
67186;HTU21D;54116;53.518;49.398;2023-02-21T03:09:38;-7.84;109.67
67186;HTU21D;54116;53.518;49.398;2023-02-21T03:12:32;-7.83;109.59
67186;HTU21D;54116;53.518;49.398;2023-02-21T03:15:12;-7.79;109.85
67186;HTU21D;54116;53.518;49.398;2023-02-21T03:17:46;-7.75;109.73
67186;HTU21D;54116;53.518;49.398;2023-02-21T03:20:15;-7.71;109.81
67186;HTU21D;54116;53.518;49.398;2023-02-21T03:22:43;-7.67;110.04
67186;HTU21D;54116;53.518;49.398;2023-02-21T03:25:12;-7.65;110.12
67186;HTU21D;54116;53.518;49.398;2023-02-21T03:27:40;-7.61;110.29
67186;HTU21D;54116;53.518;49.398;2023-02-21T03:30:08;-7.57;110.36
67186;HTU21D;54116;53.518;49.398;2023-02-21T03:32:54;-7.61;109.91
67186;HTU21D;54116;53.518;49.398;2023-02-21T03:35:21;-7.63;110.17
67186;HTU21D;54116;53.518;49.398;2023-02-21T03:37:52;-7.64;110.11
67186;HTU21D;54116;53.518;49.398;2023-02-21T03:40:24;-7.67;110.23
67186;HTU21D;54116;53.518;49.398;2023-02-21T03:42:53;-7.69;110.28
67186;HTU21D;54116;53.518;49.398;2023-02-21T03:45:20;-7.71;110.49
67186;HTU21D;54116;53.518;49.398;2023-02-21T03:47:47;-7.74;110.68
67186;HTU21D;54116;53.518;49.398;2023-02-21T03:50:13;-7.78;110.74
67186;HTU21D;54116;53.518;49.398;2023-02-21T03:52:40;-7.80;111.00
67186;HTU21D;54116;53.518;49.398;2023-02-21T03:55:07;-7.84;110.58
67186;HTU21D;54116;53.518;49.398;2023-02-21T03:57:34;-7.91;110.19
67186;HTU21D;54116;53.518;49.398;2023-02-21T04:00:00;-7.94;110.50
67186;HTU21D;54116;53.518;49.398;2023-02-21T04:02:26;-7.91;110.74
67186;HTU21D;54116;53.518;49.398;2023-02-21T04:04:53;-7.86;110.65
67186;HTU21D;54116;53.518;49.398;2023-02-21T04:07:20;-7.75;111.18
67186;HTU21D;54116;53.518;49.398;2023-02-21T04:09:47;-7.63;111.11
67186;HTU21D;54116;53.518;49.398;2023-02-21T04:12:14;-7.53;110.87
67186;HTU21D;54116;53.518;49.398;2023-02-21T04:14:40;-7.37;111.16
67186;HTU21D;54116;53.518;49.398;2023-02-21T04:17:07;-7.22;110.93
67186;HTU21D;54116;53.518;49.398;2023-02-21T04:19:33;-7.07;110.72
67186;HTU21D;54116;53.518;49.398;2023-02-21T04:21:59;-6.91;110.55
67186;HTU21D;54116;53.518;49.398;2023-02-21T04:24:25;-6.76;110.11
67186;HTU21D;54116;53.518;49.398;2023-02-21T04:26:52;-6.61;109.61
67186;HTU21D;54116;53.518;49.398;2023-02-21T04:29:18;-6.47;109.17
67186;HTU21D;54116;53.518;49.398;2023-02-21T04:31:45;-6.30;108.52
67186;HTU21D;54116;53.518;49.398;2023-02-21T04:34:11;-6.17;107.86
67186;HTU21D;54116;53.518;49.398;2023-02-21T04:36:38;-6.06;107.11
67186;HTU21D;54116;53.518;49.398;2023-02-21T04:39:06;-6.00;106.53
67186;HTU21D;54116;53.518;49.398;2023-02-21T04:41:32;-5.92;106.24
67186;HTU21D;54116;53.518;49.398;2023-02-21T04:43:59;-5.86;106.06
67186;HTU21D;54116;53.518;49.398;2023-02-21T04:46:27;-5.81;106.05
67186;HTU21D;54116;53.518;49.398;2023-02-21T04:48:53;-5.76;106.70
67186;HTU21D;54116;53.518;49.398;2023-02-21T04:51:22;-5.70;107.09
67186;HTU21D;54116;53.518;49.398;2023-02-21T04:53:49;-5.62;107.24
67186;HTU21D;54116;53.518;49.398;2023-02-21T04:56:21;-5.55;107.50
67186;HTU21D;54116;53.518;49.398;2023-02-21T04:58:48;-5.50;107.84
67186;HTU21D;54116;53.518;49.398;2023-02-21T05:01:15;-5.43;107.69
67186;HTU21D;54116;53.518;49.398;2023-02-21T05:03:42;-5.41;107.97
67186;HTU21D;54116;53.518;49.398;2023-02-21T05:06:08;-5.39;108.11
67186;HTU21D;54116;53.518;49.398;2023-02-21T05:08:35;-5.37;108.36
67186;HTU21D;54116;53.518;49.398;2023-02-21T05:11:02;-5.32;108.75
67186;HTU21D;54116;53.518;49.398;2023-02-21T05:13:28;-5.20;108.62
67186;HTU21D;54116;53.518;49.398;2023-02-21T05:15:55;-5.10;107.88
67186;HTU21D;54116;53.518;49.398;2023-02-21T05:18:21;-5.01;107.60
67186;HTU21D;54116;53.518;49.398;2023-02-21T05:20:54;-4.89;107.47
67186;HTU21D;54116;53.518;49.398;2023-02-21T05:23:21;-4.81;106.57
67186;HTU21D;54116;53.518;49.398;2023-02-21T05:26:07;-4.71;106.86
67186;HTU21D;54116;53.518;49.398;2023-02-21T05:28:35;-4.57;106.46
67186;HTU21D;54116;53.518;49.398;2023-02-21T05:31:01;-4.45;105.95
67186;HTU21D;54116;53.518;49.398;2023-02-21T05:33:28;-4.28;105.62
67186;HTU21D;54116;53.518;49.398;2023-02-21T05:35:55;-4.16;103.55
67186;HTU21D;54116;53.518;49.398;2023-02-21T05:38:22;-4.09;103.19
67186;HTU21D;54116;53.518;49.398;2023-02-21T05:40:49;-3.96;103.25
67186;HTU21D;54116;53.518;49.398;2023-02-21T05:43:15;-3.66;101.44
67186;HTU21D;54116;53.518;49.398;2023-02-21T05:45:42;-3.43;99.07
67186;HTU21D;54116;53.518;49.398;2023-02-21T05:48:08;-3.48;98.90
67186;HTU21D;54116;53.518;49.398;2023-02-21T05:50:35;-3.36;98.74
67186;HTU21D;54116;53.518;49.398;2023-02-21T05:53:01;-3.31;99.03
67186;HTU21D;54116;53.518;49.398;2023-02-21T05:55:27;-3.12;98.68
67186;HTU21D;54116;53.518;49.398;2023-02-21T05:57:54;-2.84;96.78
67186;HTU21D;54116;53.518;49.398;2023-02-21T06:00:26;-2.72;95.19
67186;HTU21D;54116;53.518;49.398;2023-02-21T06:02:53;-2.78;95.20
67186;HTU21D;54116;53.518;49.398;2023-02-21T06:05:21;-2.74;95.10
67186;HTU21D;54116;53.518;49.398;2023-02-21T06:07:48;-2.76;94.75
67186;HTU21D;54116;53.518;49.398;2023-02-21T06:10:15;-2.77;95.88
67186;HTU21D;54116;53.518;49.398;2023-02-21T06:12:42;-2.64;94.88
67186;HTU21D;54116;53.518;49.398;2023-02-21T06:15:09;-2.67;94.01
67186;HTU21D;54116;53.518;49.398;2023-02-21T06:17:39;-2.67;95.05
67186;HTU21D;54116;53.518;49.398;2023-02-21T06:20:07;-2.45;94.72
67186;HTU21D;54116;53.518;49.398;2023-02-21T06:22:35;-2.45;93.42
67186;HTU21D;54116;53.518;49.398;2023-02-21T06:25:02;-2.47;94.03
67186;HTU21D;54116;53.518;49.398;2023-02-21T06:27:28;-2.39;94.81
67186;HTU21D;54116;53.518;49.398;2023-02-21T06:29:54;-2.19;92.63
67186;HTU21D;54116;53.518;49.398;2023-02-21T06:32:20;-2.19;93.05
67186;HTU21D;54116;53.518;49.398;2023-02-21T06:34:47;-2.24;93.43
67186;HTU21D;54116;53.518;49.398;2023-02-21T06:37:13;-2.17;93.56
67186;HTU21D;54116;53.518;49.398;2023-02-21T06:39:39;-2.34;92.90
67186;HTU21D;54116;53.518;49.398;2023-02-21T06:42:06;-2.57;93.69
67186;HTU21D;54116;53.518;49.398;2023-02-21T06:44:32;-2.86;95.41
67186;HTU21D;54116;53.518;49.398;2023-02-21T06:46:58;-2.64;96.45
67186;HTU21D;54116;53.518;49.398;2023-02-21T06:49:25;-2.45;94.81
67186;HTU21D;54116;53.518;49.398;2023-02-21T06:51:51;-2.04;94.43
67186;HTU21D;54116;53.518;49.398;2023-02-21T06:54:17;-1.68;90.82
67186;HTU21D;54116;53.518;49.398;2023-02-21T06:56:43;-1.59;89.57
67186;HTU21D;54116;53.518;49.398;2023-02-21T06:59:10;-1.63;88.61
67186;HTU21D;54116;53.518;49.398;2023-02-21T07:01:36;-1.78;88.96
67186;HTU21D;54116;53.518;49.398;2023-02-21T07:04:02;-1.68;88.99
67186;HTU21D;54116;53.518;49.398;2023-02-21T07:06:29;-1.53;88.28
67186;HTU21D;54116;53.518;49.398;2023-02-21T07:08:56;-1.48;88.07
67186;HTU21D;54116;53.518;49.398;2023-02-21T07:11:23;-1.16;87.28
67186;HTU21D;54116;53.518;49.398;2023-02-21T07:13:50;-0.90;87.19
67186;HTU21D;54116;53.518;49.398;2023-02-21T07:16:19;-0.68;85.21
67186;HTU21D;54116;53.518;49.398;2023-02-21T07:18:46;-0.66;84.39
67186;HTU21D;54116;53.518;49.398;2023-02-21T07:21:14;-1.04;85.26
67186;HTU21D;54116;53.518;49.398;2023-02-21T07:23:44;-0.95;86.79
67186;HTU21D;54116;53.518;49.398;2023-02-21T07:26:10;-0.75;86.63
67186;HTU21D;54116;53.518;49.398;2023-02-21T07:28:37;-1.13;85.69
67186;HTU21D;54116;53.518;49.398;2023-02-21T07:31:03;-1.45;88.87
67186;HTU21D;54116;53.518;49.398;2023-02-21T07:33:30;-1.44;88.43
67186;HTU21D;54116;53.518;49.398;2023-02-21T07:35:56;-1.60;89.09
67186;HTU21D;54116;53.518;49.398;2023-02-21T07:38:23;-1.68;88.11
67186;HTU21D;54116;53.518;49.398;2023-02-21T07:40:53;-1.76;89.58
67186;HTU21D;54116;53.518;49.398;2023-02-21T07:43:19;-1.65;89.29
67186;HTU21D;54116;53.518;49.398;2023-02-21T07:45:46;-1.50;89.28
67186;HTU21D;54116;53.518;49.398;2023-02-21T07:48:12;-1.15;87.81
67186;HTU21D;54116;53.518;49.398;2023-02-21T07:50:43;-0.99;86.12
67186;HTU21D;54116;53.518;49.398;2023-02-21T07:53:10;-0.90;86.55
67186;HTU21D;54116;53.518;49.398;2023-02-21T07:55:36;-0.67;84.75
67186;HTU21D;54116;53.518;49.398;2023-02-21T07:58:03;-1.04;85.55
67186;HTU21D;54116;53.518;49.398;2023-02-21T08:00:30;-1.28;86.81
67186;HTU21D;54116;53.518;49.398;2023-02-21T08:03:00;-1.08;86.35
67186;HTU21D;54116;53.518;49.398;2023-02-21T08:05:27;-1.11;86.54
67186;HTU21D;54116;53.518;49.398;2023-02-21T08:07:53;-0.99;86.85
67186;HTU21D;54116;53.518;49.398;2023-02-21T08:10:23;-0.85;86.14
67186;HTU21D;54116;53.518;49.398;2023-02-21T08:12:50;-0.55;85.41
67186;HTU21D;54116;53.518;49.398;2023-02-21T08:15:17;-0.44;82.37
67186;HTU21D;54116;53.518;49.398;2023-02-21T08:17:47;-0.86;83.81
67186;HTU21D;54116;53.518;49.398;2023-02-21T08:20:13;-0.83;87.78
67186;HTU21D;54116;53.518;49.398;2023-02-21T08:22:40;-0.26;84.43
67186;HTU21D;54116;53.518;49.398;2023-02-21T08:25:06;-0.11;82.81
67186;HTU21D;54116;53.518;49.398;2023-02-21T08:27:34;-0.31;82.88
67186;HTU21D;54116;53.518;49.398;2023-02-21T08:30:03;-0.41;83.64
67186;HTU21D;54116;53.518;49.398;2023-02-21T08:32:30;-0.23;83.16
67186;HTU21D;54116;53.518;49.398;2023-02-21T08:34:56;-0.09;81.91
67186;HTU21D;54116;53.518;49.398;2023-02-21T08:37:22;-0.25;81.75
67186;HTU21D;54116;53.518;49.398;2023-02-21T08:39:50;-0.62;84.38
67186;HTU21D;54116;53.518;49.398;2023-02-21T08:42:19;-0.46;83.81
67186;HTU21D;54116;53.518;49.398;2023-02-21T08:44:46;-0.27;84.29
67186;HTU21D;54116;53.518;49.398;2023-02-21T08:47:13;0.01;82.24
67186;HTU21D;54116;53.518;49.398;2023-02-21T08:49:43;0.12;81.86
67186;HTU21D;54116;53.518;49.398;2023-02-21T08:52:13;-0.29;81.97
67186;HTU21D;54116;53.518;49.398;2023-02-21T08:54:41;-0.39;83.55
67186;HTU21D;54116;53.518;49.398;2023-02-21T08:57:09;-0.22;83.43
67186;HTU21D;54116;53.518;49.398;2023-02-21T08:59:42;-0.17;83.12
67186;HTU21D;54116;53.518;49.398;2023-02-21T09:02:18;-0.28;82.61
67186;HTU21D;54116;53.518;49.398;2023-02-21T09:04:45;-0.43;84.09
67186;HTU21D;54116;53.518;49.398;2023-02-21T09:07:13;-0.64;84.51
67186;HTU21D;54116;53.518;49.398;2023-02-21T09:09:40;-0.64;85.23
67186;HTU21D;54116;53.518;49.398;2023-02-21T09:12:07;-0.91;86.19
67186;HTU21D;54116;53.518;49.398;2023-02-21T09:14:34;-0.96;87.34
67186;HTU21D;54116;53.518;49.398;2023-02-21T09:17:02;-0.76;86.61
67186;HTU21D;54116;53.518;49.398;2023-02-21T09:19:29;-0.17;85.35
67186;HTU21D;54116;53.518;49.398;2023-02-21T09:21:55;-0.01;82.49
67186;HTU21D;54116;53.518;49.398;2023-02-21T09:24:22;-0.46;83.84
67186;HTU21D;54116;53.518;49.398;2023-02-21T09:26:51;-0.79;85.18
67186;HTU21D;54116;53.518;49.398;2023-02-21T09:29:27;-0.72;85.91
67186;HTU21D;54116;53.518;49.398;2023-02-21T09:31:53;-0.79;84.97
67186;HTU21D;54116;53.518;49.398;2023-02-21T09:34:21;-0.83;86.35
67186;HTU21D;54116;53.518;49.398;2023-02-21T09:36:48;-0.53;86.03
67186;HTU21D;54116;53.518;49.398;2023-02-21T09:39:17;-0.31;83.79
67186;HTU21D;54116;53.518;49.398;2023-02-21T09:41:44;-0.06;83.29
67186;HTU21D;54116;53.518;49.398;2023-02-21T09:44:21;-0.13;83.89
67186;HTU21D;54116;53.518;49.398;2023-02-21T09:46:59;0.03;81.74
67186;HTU21D;54116;53.518;49.398;2023-02-21T09:49:34;-0.34;83.41
67186;HTU21D;54116;53.518;49.398;2023-02-21T09:52:01;-0.53;84.11
67186;HTU21D;54116;53.518;49.398;2023-02-21T09:54:41;-0.43;85.23
67186;HTU21D;54116;53.518;49.398;2023-02-21T09:57:14;-0.27;84.15
67186;HTU21D;54116;53.518;49.398;2023-02-21T09:59:41;-0.09;82.78
67186;HTU21D;54116;53.518;49.398;2023-02-21T10:05:06;0.16;82.13
67186;HTU21D;54116;53.518;49.398;2023-02-21T10:07:55;0.07;83.60
67186;HTU21D;54116;53.518;49.398;2023-02-21T10:10:46;0.36;81.52
67186;HTU21D;54116;53.518;49.398;2023-02-21T10:13:34;0.36;81.91
67186;HTU21D;54116;53.518;49.398;2023-02-21T10:16:19;0.24;81.25
67186;HTU21D;54116;53.518;49.398;2023-02-21T10:19:14;0.14;81.09
67186;HTU21D;54116;53.518;49.398;2023-02-21T10:21:44;-0.32;83.17
67186;HTU21D;54116;53.518;49.398;2023-02-21T10:24:13;-0.21;84.35
67186;HTU21D;54116;53.518;49.398;2023-02-21T10:26:44;0.31;82.81
67186;HTU21D;54116;53.518;49.398;2023-02-21T10:29:26;0.32;81.54
67186;HTU21D;54116;53.518;49.398;2023-02-21T10:31:59;0.38;81.74
67186;HTU21D;54116;53.518;49.398;2023-02-21T10:34:29;0.09;81.77
67186;HTU21D;54116;53.518;49.398;2023-02-21T10:37:00;0.32;80.76
67186;HTU21D;54116;53.518;49.398;2023-02-21T10:39:39;0.09;81.56
67186;HTU21D;54116;53.518;49.398;2023-02-21T10:42:12;0.06;82.33
67186;HTU21D;54116;53.518;49.398;2023-02-21T10:44:40;-0.23;82.52
67186;HTU21D;54116;53.518;49.398;2023-02-21T10:47:18;-0.44;85.06
67186;HTU21D;54116;53.518;49.398;2023-02-21T10:49:53;-0.54;85.39
67186;HTU21D;54116;53.518;49.398;2023-02-21T10:52:24;-0.59;86.32
67186;HTU21D;54116;53.518;49.398;2023-02-21T10:55:34;-0.71;87.54
67186;HTU21D;54116;53.518;49.398;2023-02-21T10:57:55;-0.68;87.59
67186;HTU21D;54116;53.518;49.398;2023-02-21T11:00:37;-0.81;87.03
67186;HTU21D;54116;53.518;49.398;2023-02-21T11:03:20;-0.79;88.16
67186;HTU21D;54116;53.518;49.398;2023-02-21T11:05:57;-0.76;86.90
67186;HTU21D;54116;53.518;49.398;2023-02-21T11:08:43;-0.69;86.96
67186;HTU21D;54116;53.518;49.398;2023-02-21T11:11:09;-0.64;87.19
67186;HTU21D;54116;53.518;49.398;2023-02-21T11:13:36;-0.39;87.64
67186;HTU21D;54116;53.518;49.398;2023-02-21T11:16:19;0.24;85.01
67186;HTU21D;54116;53.518;49.398;2023-02-21T11:19:06;0.53;82.07
67186;HTU21D;54116;53.518;49.398;2023-02-21T11:21:33;0.01;81.59
67186;HTU21D;54116;53.518;49.398;2023-02-21T11:24:02;-0.75;84.49
67186;HTU21D;54116;53.518;49.398;2023-02-21T11:26:35;-1.19;87.92
67186;HTU21D;54116;53.518;49.398;2023-02-21T11:29:18;-1.29;89.58
67186;HTU21D;54116;53.518;49.398;2023-02-21T11:31:46;-1.14;88.49
67186;HTU21D;54116;53.518;49.398;2023-02-21T11:34:13;-1.20;88.91
67186;HTU21D;54116;53.518;49.398;2023-02-21T11:36:43;-1.09;87.92
67186;HTU21D;54116;53.518;49.398;2023-02-21T11:39:24;-1.13;88.02
67186;HTU21D;54116;53.518;49.398;2023-02-21T11:41:57;-1.18;89.06
67186;HTU21D;54116;53.518;49.398;2023-02-21T11:47:10;-1.02;87.98
67186;HTU21D;54116;53.518;49.398;2023-02-21T11:49:46;-0.87;87.75
67186;HTU21D;54116;53.518;49.398;2023-02-21T11:52:17;-0.35;84.59
67186;HTU21D;54116;53.518;49.398;2023-02-21T11:54:45;-0.73;83.51
67186;HTU21D;54116;53.518;49.398;2023-02-21T11:57:38;-1.31;86.60
67186;HTU21D;54116;53.518;49.398;2023-02-21T12:00:17;-1.72;89.00
67186;HTU21D;54116;53.518;49.398;2023-02-21T12:13:49;-1.15;87.93
67186;HTU21D;54116;53.518;49.398;2023-02-21T12:19:46;-1.45;88.96
67186;HTU21D;54116;53.518;49.398;2023-02-21T12:22:32;-1.68;89.49
67186;HTU21D;54116;53.518;49.398;2023-02-21T12:40:02;-2.41;93.50
67186;HTU21D;54116;53.518;49.398;2023-02-21T12:48:08;-2.46;93.85
67186;HTU21D;54116;53.518;49.398;2023-02-21T12:50:40;-2.45;94.27
67186;HTU21D;54116;53.518;49.398;2023-02-21T12:55:41;-2.43;93.94
67186;HTU21D;54116;53.518;49.398;2023-02-21T13:01:18;-2.49;94.32
67186;HTU21D;54116;53.518;49.398;2023-02-21T13:03:58;-2.48;94.83
67186;HTU21D;54116;53.518;49.398;2023-02-21T13:06:34;-2.52;94.89
67186;HTU21D;54116;53.518;49.398;2023-02-21T13:13:14;-2.58;95.21
67186;HTU21D;54116;53.518;49.398;2023-02-21T13:15:45;-2.67;95.50
67186;HTU21D;54116;53.518;49.398;2023-02-21T13:20:46;-2.78;96.04
67186;HTU21D;54116;53.518;49.398;2023-02-21T13:27:00;-2.92;96.49
67186;HTU21D;54116;53.518;49.398;2023-02-21T13:29:35;-3.01;96.83
67186;HTU21D;54116;53.518;49.398;2023-02-21T13:32:10;-3.02;96.78
67186;HTU21D;54116;53.518;49.398;2023-02-21T13:34:42;-3.09;96.33
67186;HTU21D;54116;53.518;49.398;2023-02-21T13:37:27;-3.21;96.39
67186;HTU21D;54116;53.518;49.398;2023-02-21T13:40:46;-3.34;96.75
67186;HTU21D;54116;53.518;49.398;2023-02-21T13:42:47;-3.43;97.11
67186;HTU21D;54116;53.518;49.398;2023-02-21T13:55:35;-3.95;99.87
67186;HTU21D;54116;53.518;49.398;2023-02-21T14:00:45;-4.04;100.30
67186;HTU21D;54116;53.518;49.398;2023-02-21T14:13:38;-4.39;102.54
67186;HTU21D;54116;53.518;49.398;2023-02-21T14:21:09;-4.61;103.54
67186;HTU21D;54116;53.518;49.398;2023-02-21T14:23:46;-4.64;104.98
67186;HTU21D;54116;53.518;49.398;2023-02-21T14:26:39;-4.61;105.25
67186;HTU21D;54116;53.518;49.398;2023-02-21T14:31:55;-4.51;105.76
67186;HTU21D;54116;53.518;49.398;2023-02-21T14:37:38;-4.49;105.50
67186;HTU21D;54116;53.518;49.398;2023-02-21T14:43:10;-4.35;105.74
67186;HTU21D;54116;53.518;49.398;2023-02-21T14:52:17;-4.26;104.83
67186;HTU21D;54116;53.518;49.398;2023-02-21T15:00:18;-4.23;104.84
67186;HTU21D;54116;53.518;49.398;2023-02-21T15:03:12;-4.21;104.79
67186;HTU21D;54116;53.518;49.398;2023-02-21T15:08:23;-4.19;104.64
67186;HTU21D;54116;53.518;49.398;2023-02-21T15:10:53;-4.21;104.76
67186;HTU21D;54116;53.518;49.398;2023-02-21T15:16:03;-4.24;104.93
67186;HTU21D;54116;53.518;49.398;2023-02-21T15:18:32;-4.23;105.40
67186;HTU21D;54116;53.518;49.398;2023-02-21T15:23:44;-4.17;105.62
67186;HTU21D;54116;53.518;49.398;2023-02-21T15:29:12;-4.10;105.27
67186;HTU21D;54116;53.518;49.398;2023-02-21T15:31:42;-4.10;105.31
67186;HTU21D;54116;53.518;49.398;2023-02-21T15:34:33;-4.09;105.21
67186;HTU21D;54116;53.518;49.398;2023-02-21T15:39:47;-4.12;105.45
67186;HTU21D;54116;53.518;49.398;2023-02-21T15:42:15;-4.11;105.32
67186;HTU21D;54116;53.518;49.398;2023-02-21T15:45:10;-4.11;105.39
67186;HTU21D;54116;53.518;49.398;2023-02-21T15:47:37;-4.10;105.65
67186;HTU21D;54116;53.518;49.398;2023-02-21T15:50:07;-4.08;105.71
67186;HTU21D;54116;53.518;49.398;2023-02-21T15:57:41;-4.00;105.48
67186;HTU21D;54116;53.518;49.398;2023-02-21T16:00:19;-4.01;105.76
67186;HTU21D;54116;53.518;49.398;2023-02-21T16:02:48;-4.01;105.98
67186;HTU21D;54116;53.518;49.398;2023-02-21T16:05:27;-3.99;106.30
67186;HTU21D;54116;53.518;49.398;2023-02-21T16:08:02;-4.00;106.32
67186;HTU21D;54116;53.518;49.398;2023-02-21T16:10:31;-4.00;106.76
67186;HTU21D;54116;53.518;49.398;2023-02-21T16:12:59;-4.01;107.01
67186;HTU21D;54116;53.518;49.398;2023-02-21T16:15:28;-4.01;106.98
67186;HTU21D;54116;53.518;49.398;2023-02-21T16:18:01;-3.99;107.17
67186;HTU21D;54116;53.518;49.398;2023-02-21T16:20:39;-3.99;107.15
67186;HTU21D;54116;53.518;49.398;2023-02-21T16:23:37;-3.97;107.11
67186;HTU21D;54116;53.518;49.398;2023-02-21T16:28:36;-3.96;107.34
67186;HTU21D;54116;53.518;49.398;2023-02-21T16:31:05;-3.97;107.30
67186;HTU21D;54116;53.518;49.398;2023-02-21T16:33:33;-3.97;107.36
67186;HTU21D;54116;53.518;49.398;2023-02-21T16:36:05;-3.98;107.24
67186;HTU21D;54116;53.518;49.398;2023-02-21T16:38:32;-3.98;107.41
67186;HTU21D;54116;53.518;49.398;2023-02-21T16:40:58;-3.99;107.73
67186;HTU21D;54116;53.518;49.398;2023-02-21T16:43:27;-3.99;107.93
67186;HTU21D;54116;53.518;49.398;2023-02-21T16:45:56;-4.01;108.17
67186;HTU21D;54116;53.518;49.398;2023-02-21T16:48:25;-4.04;108.62
67186;HTU21D;54116;53.518;49.398;2023-02-21T16:50:54;-4.06;108.85
67186;HTU21D;54116;53.518;49.398;2023-02-21T16:53:21;-4.06;108.90
67186;HTU21D;54116;53.518;49.398;2023-02-21T16:55:48;-4.07;109.02
67186;HTU21D;54116;53.518;49.398;2023-02-21T16:58:37;-4.08;109.16
67186;HTU21D;54116;53.518;49.398;2023-02-21T17:01:14;-4.09;109.47
67186;HTU21D;54116;53.518;49.398;2023-02-21T17:03:41;-4.10;109.48
67186;HTU21D;54116;53.518;49.398;2023-02-21T17:06:15;-4.11;109.62
67186;HTU21D;54116;53.518;49.398;2023-02-21T17:08:42;-4.10;109.47
67186;HTU21D;54116;53.518;49.398;2023-02-21T17:11:08;-4.11;109.48
67186;HTU21D;54116;53.518;49.398;2023-02-21T17:13:35;-4.13;109.37
67186;HTU21D;54116;53.518;49.398;2023-02-21T17:16:01;-4.16;109.11
67186;HTU21D;54116;53.518;49.398;2023-02-21T17:18:30;-4.17;109.01
67186;HTU21D;54116;53.518;49.398;2023-02-21T17:20:58;-4.19;109.14
67186;HTU21D;54116;53.518;49.398;2023-02-21T17:23:24;-4.19;108.88
67186;HTU21D;54116;53.518;49.398;2023-02-21T17:25:51;-4.19;108.58
67186;HTU21D;54116;53.518;49.398;2023-02-21T17:28:17;-4.20;108.38
67186;HTU21D;54116;53.518;49.398;2023-02-21T17:30:44;-4.23;108.30
67186;HTU21D;54116;53.518;49.398;2023-02-21T17:33:10;-4.23;108.28
67186;HTU21D;54116;53.518;49.398;2023-02-21T17:35:37;-4.25;108.23
67186;HTU21D;54116;53.518;49.398;2023-02-21T17:41:23;-4.29;108.25
67186;HTU21D;54116;53.518;49.398;2023-02-21T17:43:49;-4.32;108.25
67186;HTU21D;54116;53.518;49.398;2023-02-21T17:46:17;-4.38;107.91
67186;HTU21D;54116;53.518;49.398;2023-02-21T17:48:44;-4.38;107.73
67186;HTU21D;54116;53.518;49.398;2023-02-21T17:51:19;-4.40;107.85
67186;HTU21D;54116;53.518;49.398;2023-02-21T17:53:46;-4.44;107.75
67186;HTU21D;54116;53.518;49.398;2023-02-21T17:56:16;-4.45;107.91
67186;HTU21D;54116;53.518;49.398;2023-02-21T17:58:43;-4.48;107.79
67186;HTU21D;54116;53.518;49.398;2023-02-21T18:01:14;-4.50;107.92
67186;HTU21D;54116;53.518;49.398;2023-02-21T18:03:40;-4.51;108.02